createdAt,value
2022-10-11T00:02:07.302Z,13.10
2022-10-11T00:04:35.177Z,13.10
2022-10-11T00:07:03.022Z,13.00
2022-10-11T00:09:31.471Z,13.00
2022-10-11T00:11:59.362Z,13.00
2022-10-11T00:14:28.458Z,13.00
2022-10-11T00:16:56.497Z,12.90
2022-10-11T00:19:25.727Z,12.90
2022-10-11T00:21:53.591Z,12.80
2022-10-11T00:24:21.510Z,12.80
2022-10-11T00:26:49.343Z,12.90
2022-10-11T00:29:17.260Z,12.80
2022-10-11T00:31:45.181Z,12.90
2022-10-11T00:34:13.299Z,12.80
2022-10-11T00:36:42.529Z,12.70
2022-10-11T00:39:10.389Z,12.70
2022-10-11T00:41:38.326Z,12.70
2022-10-11T00:44:11.654Z,12.60
2022-10-11T00:46:40.463Z,12.60
2022-10-11T00:49:15.663Z,12.50
2022-10-11T00:51:49.967Z,12.50
2022-10-11T00:54:21.610Z,12.50
2022-10-11T00:56:54.306Z,12.40
2022-10-11T00:59:26.099Z,12.40
2022-10-11T01:01:54.222Z,12.40
2022-10-11T01:04:22.572Z,12.40
2022-10-11T01:06:52.712Z,12.40
2022-10-11T01:09:22.026Z,12.30
2022-10-11T01:11:53.483Z,12.30
2022-10-11T01:14:35.439Z,12.20
2022-10-11T01:17:11.869Z,12.20
2022-10-11T01:19:55.899Z,12.20
2022-10-11T01:22:45.747Z,12.20
2022-10-11T01:25:24.982Z,12.10
2022-10-11T01:28:08.335Z,12.10
2022-10-11T01:30:38.900Z,12.00
2022-10-11T01:33:22.487Z,12.00
2022-10-11T01:35:58.323Z,12.00
2022-10-11T01:38:36.164Z,12.00
2022-10-11T01:41:08.995Z,11.90
2022-10-11T01:43:38.451Z,11.90
2022-10-11T01:46:09.919Z,11.90
2022-10-11T01:48:48.303Z,11.90
2022-10-11T01:51:16.552Z,11.90
2022-10-11T01:54:10.126Z,11.90
2022-10-11T01:56:54.351Z,11.90
2022-10-11T01:59:37.644Z,11.90
2022-10-11T02:02:18.216Z,11.90
2022-10-11T02:04:54.631Z,11.90
2022-10-11T02:07:26.352Z,11.90
2022-10-11T02:10:01.312Z,11.90
2022-10-11T02:12:33.361Z,11.80
2022-10-11T02:15:04.139Z,11.80
2022-10-11T02:17:37.451Z,11.80
2022-10-11T02:20:09.523Z,11.70
2022-10-11T02:22:41.907Z,11.70
2022-10-11T02:25:13.528Z,11.70
2022-10-11T02:27:43.002Z,11.60
2022-10-11T02:30:12.213Z,11.60
2022-10-11T02:32:44.778Z,11.50
2022-10-11T02:35:13.389Z,11.50
2022-10-11T02:37:48.311Z,11.50
2022-10-11T02:40:20.271Z,11.50
2022-10-11T02:42:54.227Z,11.50
2022-10-11T02:45:27.584Z,11.40
2022-10-11T02:47:57.622Z,11.40
2022-10-11T02:50:25.516Z,11.40
2022-10-11T02:52:53.384Z,11.40
2022-10-11T02:55:21.570Z,11.40
2022-10-11T02:57:49.443Z,11.30
2022-10-11T03:00:17.415Z,11.30
2022-10-11T03:02:45.289Z,11.40
2022-10-11T03:05:14.433Z,11.30
2022-10-11T03:07:42.303Z,11.30
2022-10-11T03:10:10.744Z,11.30
2022-10-11T03:12:38.779Z,11.30
2022-10-11T03:15:07.680Z,11.20
2022-10-11T03:17:36.990Z,11.20
2022-10-11T03:20:06.294Z,11.20
2022-10-11T03:22:35.528Z,11.20
2022-10-11T03:25:04.566Z,11.20
2022-10-11T03:27:33.204Z,11.20
2022-10-11T03:30:01.460Z,11.10
2022-10-11T03:32:29.445Z,11.10
2022-10-11T03:34:57.636Z,11.00
2022-10-11T03:37:25.835Z,11.00
2022-10-11T03:39:55.072Z,11.00
2022-10-11T03:42:22.922Z,11.00
2022-10-11T03:44:52.041Z,11.00
2022-10-11T03:47:20.025Z,11.00
2022-10-11T03:49:47.985Z,10.90
2022-10-11T03:52:16.173Z,10.90
2022-10-11T03:54:44.017Z,10.90
2022-10-11T03:57:13.229Z,10.90
2022-10-11T03:59:41.119Z,10.90
2022-10-11T04:02:09.066Z,10.90
2022-10-11T04:04:37.051Z,11.00
2022-10-11T04:07:05.064Z,11.00
2022-10-11T04:09:32.911Z,11.00
2022-10-11T04:12:00.791Z,11.00
2022-10-11T04:14:30.218Z,11.00
2022-10-11T04:17:00.349Z,11.00
2022-10-11T04:19:28.888Z,11.00
2022-10-11T04:21:56.727Z,11.00
2022-10-11T04:24:24.635Z,11.00
2022-10-11T04:26:52.501Z,11.00
2022-10-11T04:29:20.349Z,11.00
2022-10-11T04:31:49.632Z,11.10
2022-10-11T04:34:17.744Z,11.10
2022-10-11T04:36:49.747Z,11.10
2022-10-11T04:39:17.943Z,11.00
2022-10-11T04:41:45.832Z,11.10
2022-10-11T04:44:13.696Z,11.10
2022-10-11T04:46:41.558Z,11.10
2022-10-11T04:49:10.815Z,11.10
2022-10-11T04:51:38.662Z,11.10
2022-10-11T04:54:06.605Z,11.10
2022-10-11T04:56:34.470Z,11.10
2022-10-11T04:59:02.307Z,11.10
2022-10-11T05:01:30.377Z,11.10
2022-10-11T05:03:58.206Z,11.10
2022-10-11T05:06:27.442Z,11.10
2022-10-11T05:08:55.343Z,11.10
2022-10-11T05:11:23.354Z,11.10
2022-10-11T05:13:51.235Z,11.00
2022-10-11T05:16:19.135Z,11.00
2022-10-11T05:18:46.948Z,11.00
2022-10-11T05:21:17.846Z,11.00
2022-10-11T05:23:48.665Z,10.90
2022-10-11T05:26:17.695Z,10.90
2022-10-11T05:28:45.996Z,10.90
2022-10-11T05:31:14.476Z,10.90
2022-10-11T05:33:42.831Z,10.90
2022-10-11T05:36:11.411Z,10.80
2022-10-11T05:38:39.989Z,10.80
2022-10-11T05:41:10.079Z,10.70
2022-10-11T05:43:37.974Z,10.70
2022-10-11T05:46:07.402Z,10.70
2022-10-11T05:48:35.984Z,10.70
2022-10-11T05:51:06.304Z,10.70
2022-10-11T05:53:34.556Z,10.60
2022-10-11T05:56:02.832Z,10.60
2022-10-11T05:58:32.392Z,10.60
2022-10-11T06:01:00.310Z,10.60
2022-10-11T06:03:28.448Z,10.60
2022-10-11T06:06:03.223Z,10.60
2022-10-11T06:08:31.911Z,10.50
2022-10-11T06:11:00.014Z,10.50
2022-10-11T06:13:27.855Z,10.50
2022-10-11T06:15:57.067Z,10.40
2022-10-11T06:18:24.941Z,10.50
2022-10-11T06:20:52.758Z,10.40
2022-10-11T06:23:20.614Z,10.50
2022-10-11T06:25:57.441Z,10.50
2022-10-11T06:28:26.356Z,10.50
2022-10-11T06:30:54.362Z,10.50
2022-10-11T06:33:23.795Z,10.50
2022-10-11T06:35:57.368Z,10.50
2022-10-11T06:38:25.164Z,10.60
2022-10-11T06:40:53.108Z,10.60
2022-10-11T06:43:21.127Z,10.60
2022-10-11T06:45:49.252Z,10.60
2022-10-11T06:48:17.190Z,10.60
2022-10-11T06:50:59.492Z,10.70
2022-10-11T06:53:28.480Z,10.70
2022-10-11T06:56:03.289Z,10.70
2022-10-11T06:58:31.525Z,10.70
2022-10-11T07:01:02.127Z,10.80
2022-10-11T07:03:30.322Z,10.70
2022-10-11T07:06:03.063Z,10.60
2022-10-11T07:08:31.240Z,10.60
2022-10-11T07:11:02.574Z,10.70
2022-10-11T07:13:30.916Z,10.70
2022-10-11T07:16:01.135Z,10.80
2022-10-11T07:18:29.365Z,10.90
2022-10-11T07:20:57.928Z,10.90
2022-10-11T07:23:27.130Z,10.90
2022-10-11T07:25:55.185Z,11.00
2022-10-11T07:28:23.667Z,11.10
2022-10-11T07:30:52.030Z,11.20
2022-10-11T07:33:19.942Z,11.20
2022-10-11T07:35:48.694Z,11.20
2022-10-11T07:38:17.287Z,11.30
2022-10-11T07:40:47.606Z,11.30
2022-10-11T07:43:15.599Z,11.30
2022-10-11T07:45:45.355Z,11.30
2022-10-11T07:48:13.314Z,11.40
2022-10-11T07:50:41.160Z,11.40
2022-10-11T07:53:09.882Z,11.50
2022-10-11T07:55:40.131Z,11.50
2022-10-11T07:58:10.505Z,11.50
2022-10-11T08:00:39.227Z,11.40
2022-10-11T08:03:07.857Z,11.50
2022-10-11T08:05:35.752Z,11.40
2022-10-11T08:08:03.627Z,11.20
2022-10-11T08:10:31.554Z,11.10
2022-10-11T08:13:04.062Z,11.00
2022-10-11T08:15:33.716Z,10.90
2022-10-11T08:18:01.575Z,10.90
2022-10-11T08:20:31.040Z,11.00
2022-10-11T08:22:58.980Z,11.00
2022-10-11T08:25:27.377Z,10.90
2022-10-11T08:27:55.186Z,11.00
2022-10-11T08:30:23.105Z,11.10
2022-10-11T08:32:52.393Z,11.10
2022-10-11T08:35:20.247Z,11.20
2022-10-11T08:37:48.142Z,11.20
2022-10-11T08:40:19.202Z,11.10
2022-10-11T08:42:50.034Z,10.90
2022-10-11T08:45:25.905Z,10.90
2022-10-11T08:48:05.894Z,10.90
2022-10-11T08:50:34.075Z,10.90
2022-10-11T08:53:08.337Z,10.90
2022-10-11T08:55:41.839Z,10.80
2022-10-11T08:58:14.104Z,10.70
2022-10-11T09:00:42.439Z,10.80
2022-10-11T09:03:28.019Z,10.80
2022-10-11T09:06:07.661Z,10.80
2022-10-11T09:08:46.330Z,10.60
2022-10-11T09:11:21.083Z,10.60
2022-10-11T09:14:05.764Z,10.60
2022-10-11T09:16:47.926Z,10.60
2022-10-11T09:19:42.881Z,10.60
2022-10-11T09:22:20.694Z,10.60
2022-10-11T09:25:02.375Z,10.60
2022-10-11T09:27:57.689Z,10.60
2022-10-11T09:30:22.528Z,10.60
2022-10-11T09:32:59.762Z,10.70
2022-10-11T09:35:41.865Z,10.80
2022-10-11T09:38:19.136Z,10.90
2022-10-11T09:40:59.819Z,10.90
2022-10-11T09:43:27.721Z,11.00
2022-10-11T09:45:55.614Z,11.00
2022-10-11T09:48:27.010Z,11.10
2022-10-11T09:51:03.440Z,11.20
2022-10-11T09:53:50.927Z,11.30
2022-10-11T09:56:18.856Z,11.50
2022-10-11T09:58:46.733Z,11.40
2022-10-11T10:01:24.226Z,11.40
2022-10-11T10:04:07.536Z,11.30
2022-10-11T10:06:37.237Z,11.50
2022-10-11T10:09:22.196Z,11.50
2022-10-11T10:11:50.250Z,11.60
2022-10-11T10:14:26.646Z,11.70
2022-10-11T10:17:02.267Z,11.80
2022-10-11T10:19:30.626Z,11.90
2022-10-11T10:22:00.004Z,12.00
2022-10-11T10:24:38.803Z,12.10
2022-10-11T10:27:18.308Z,12.30
2022-10-11T10:30:02.737Z,12.40
2022-10-11T10:32:37.094Z,12.40
2022-10-11T10:35:13.521Z,12.50
2022-10-11T10:37:46.837Z,12.60
2022-10-11T10:40:19.236Z,12.60
2022-10-11T10:42:47.075Z,12.60
2022-10-11T10:45:21.451Z,12.60
2022-10-11T10:48:14.194Z,12.70
2022-10-11T10:50:53.452Z,12.70
2022-10-11T10:53:28.366Z,12.80
2022-10-11T10:56:04.676Z,12.90
2022-10-11T10:59:07.988Z,12.90
2022-10-11T11:01:48.426Z,13.00
2022-10-11T11:04:28.134Z,13.00
2022-10-11T11:07:00.328Z,13.10
2022-10-11T11:09:43.232Z,13.10
2022-10-11T11:12:21.839Z,13.30
2022-10-11T11:14:59.701Z,13.40
2022-10-11T11:17:38.095Z,13.60
2022-10-11T11:20:24.647Z,13.80
2022-10-11T11:23:02.871Z,14.30
2022-10-11T11:25:45.028Z,15.00
2022-10-11T11:28:30.674Z,15.90
2022-10-11T11:31:05.160Z,17.90
2022-10-11T11:33:48.478Z,19.30
2022-10-11T11:36:25.299Z,19.80
2022-10-11T11:38:57.781Z,20.00
2022-10-11T11:41:31.707Z,20.30
2022-10-11T11:44:09.572Z,20.60
2022-10-11T11:46:42.051Z,20.80
2022-10-11T11:49:17.632Z,21.20
2022-10-11T11:51:47.313Z,21.40
2022-10-11T11:54:25.853Z,21.70
2022-10-11T11:57:02.338Z,22.00
2022-10-11T11:59:37.776Z,22.50
2022-10-11T12:02:36.127Z,22.80
2022-10-11T12:05:06.241Z,23.00
2022-10-11T12:07:49.599Z,23.40
2022-10-11T12:10:25.761Z,23.60
2022-10-11T12:13:09.958Z,23.80
2022-10-11T12:15:38.182Z,24.20
2022-10-11T12:18:15.611Z,24.40
2022-10-11T12:20:44.837Z,24.90
2022-10-11T12:23:42.392Z,25.40
2022-10-11T12:26:41.964Z,25.90
2022-10-11T12:29:39.533Z,26.40
2022-10-11T12:32:50.201Z,26.50
2022-10-11T12:35:42.482Z,26.30
2022-10-11T12:38:23.206Z,26.10
2022-10-11T12:40:54.496Z,26.10
2022-10-11T12:43:56.980Z,26.20
2022-10-11T12:46:41.434Z,26.50
2022-10-11T12:49:38.040Z,26.80
2022-10-11T12:52:22.770Z,27.30
2022-10-11T12:55:22.321Z,27.80
2022-10-11T12:58:29.619Z,28.60
2022-10-11T13:01:13.951Z,29.50
2022-10-11T13:03:45.168Z,30.00
2022-10-11T13:06:17.227Z,30.90
2022-10-11T13:08:50.131Z,31.40
2022-10-11T13:11:22.260Z,32.00
2022-10-11T13:13:54.066Z,32.30
2022-10-11T13:16:25.028Z,32.70
2022-10-11T13:18:59.280Z,33.20
2022-10-11T13:21:34.543Z,33.50
2022-10-11T13:24:04.453Z,33.70
2022-10-11T13:26:32.930Z,34.20
2022-10-11T13:29:01.405Z,34.60
2022-10-11T13:31:29.644Z,34.80
2022-10-11T13:34:00.184Z,34.60
2022-10-11T13:36:28.641Z,35.10
2022-10-11T13:38:58.860Z,35.40
2022-10-11T13:41:28.199Z,35.00
2022-10-11T13:43:57.842Z,34.00
2022-10-11T13:46:27.464Z,32.60
2022-10-11T13:49:01.355Z,31.30
2022-10-11T13:51:32.482Z,30.10
2022-10-11T13:54:02.779Z,29.00
2022-10-11T13:56:39.095Z,28.50
2022-10-11T13:59:06.984Z,28.70
2022-10-11T14:01:40.938Z,29.00
2022-10-11T14:04:11.755Z,29.50
2022-10-11T14:06:42.164Z,29.10
2022-10-11T14:09:19.088Z,28.60
2022-10-11T14:11:46.976Z,28.70
2022-10-11T14:14:40.769Z,29.20
2022-10-11T14:17:16.246Z,30.10
2022-10-11T14:19:47.320Z,31.10
2022-10-11T14:22:17.212Z,32.20
2022-10-11T14:24:47.933Z,33.20
2022-10-11T14:27:19.524Z,33.70
2022-10-11T14:30:00.563Z,34.10
2022-10-11T14:32:37.388Z,34.20
2022-10-11T14:35:07.315Z,34.20
2022-10-11T14:37:35.139Z,34.50
2022-10-11T14:40:13.140Z,34.70
2022-10-11T14:42:40.981Z,35.00
2022-10-11T14:45:45.896Z,35.00
2022-10-11T14:48:13.803Z,35.10
2022-10-11T14:50:47.734Z,35.10
2022-10-11T14:53:15.667Z,34.90
2022-10-11T14:55:44.314Z,34.60
2022-10-11T14:58:14.865Z,34.20
2022-10-11T15:00:43.004Z,33.80
2022-10-11T15:03:11.194Z,33.30
2022-10-11T15:05:39.703Z,32.20
2022-10-11T15:08:09.066Z,31.20
2022-10-11T15:10:38.688Z,30.20
2022-10-11T15:13:07.981Z,29.30
2022-10-11T15:15:37.544Z,28.60
2022-10-11T15:18:06.967Z,27.80
2022-10-11T15:20:37.042Z,27.00
2022-10-11T15:23:06.259Z,26.40
2022-10-11T15:25:35.602Z,25.90
2022-10-11T15:28:03.715Z,25.50
2022-10-11T15:30:37.097Z,24.90
2022-10-11T15:33:08.211Z,24.40
2022-10-11T15:35:36.114Z,23.90
2022-10-11T15:38:04.486Z,23.60
2022-10-11T15:40:34.670Z,23.30
2022-10-11T15:43:04.381Z,23.00
2022-10-11T15:45:32.432Z,22.60
2022-10-11T15:48:00.443Z,22.30
2022-10-11T15:50:37.591Z,22.10
2022-10-11T15:53:07.295Z,21.80
2022-10-11T15:55:37.839Z,21.50
2022-10-11T15:58:07.269Z,21.30
2022-10-11T16:00:35.093Z,21.10
2022-10-11T16:03:02.966Z,21.00
2022-10-11T16:05:30.828Z,20.80
2022-10-11T16:07:58.663Z,20.60
2022-10-11T16:10:26.538Z,20.40
2022-10-11T16:12:54.487Z,20.20
2022-10-11T16:15:23.821Z,20.10
2022-10-11T16:17:51.813Z,20.00
2022-10-11T16:20:22.208Z,19.90
2022-10-11T16:22:50.314Z,19.70
2022-10-11T16:25:22.530Z,19.60
2022-10-11T16:27:51.010Z,19.50
2022-10-11T16:30:19.875Z,19.40
2022-10-11T16:32:51.862Z,19.30
2022-10-11T16:35:20.221Z,19.10
2022-10-11T16:37:48.202Z,19.00
2022-10-11T16:40:17.561Z,18.80
2022-10-11T16:42:46.274Z,18.70
2022-10-11T16:45:15.379Z,18.60
2022-10-11T16:47:44.220Z,18.40
2022-10-11T16:50:13.836Z,18.30
2022-10-11T16:52:41.720Z,18.20
2022-10-11T16:55:10.324Z,18.10
2022-10-11T16:57:38.693Z,18.00
2022-10-11T17:00:08.652Z,17.80
2022-10-11T17:02:37.588Z,17.70
2022-10-11T17:05:06.261Z,17.60
2022-10-11T17:07:35.626Z,17.50
2022-10-11T17:10:12.320Z,17.40
2022-10-11T17:12:40.276Z,17.20
2022-10-11T17:15:11.507Z,17.10
2022-10-11T17:17:39.327Z,17.10
2022-10-11T17:20:07.976Z,17.00
2022-10-11T17:22:37.431Z,16.90
2022-10-11T17:25:05.806Z,16.80
2022-10-11T17:27:33.720Z,16.80
2022-10-11T17:30:01.631Z,16.70
2022-10-11T17:32:29.483Z,16.60
2022-10-11T17:34:59.035Z,16.60
2022-10-11T17:37:27.012Z,16.50
2022-10-11T17:39:56.467Z,16.40
2022-10-11T17:42:24.366Z,16.40
2022-10-11T17:44:52.265Z,16.30
2022-10-11T17:47:20.082Z,16.20
2022-10-11T17:49:47.942Z,16.20
2022-10-11T17:52:15.779Z,16.10
2022-10-11T17:54:43.752Z,16.10
2022-10-11T17:57:13.019Z,16.00
2022-10-11T17:59:40.858Z,15.90
2022-10-11T18:02:10.231Z,15.90
2022-10-11T18:04:38.152Z,15.80
2022-10-11T18:07:06.089Z,15.70
2022-10-11T18:09:34.820Z,15.70
2022-10-11T18:12:02.685Z,15.60
2022-10-11T18:14:31.964Z,15.60
2022-10-11T18:16:59.843Z,15.50
2022-10-11T18:19:27.694Z,15.40
2022-10-11T18:21:55.559Z,15.40
2022-10-11T18:24:23.419Z,15.40
2022-10-11T18:26:51.293Z,15.30
2022-10-11T18:29:19.208Z,15.20
2022-10-11T18:31:48.410Z,15.20
2022-10-11T18:34:16.254Z,15.20
2022-10-11T18:36:44.211Z,15.10
2022-10-11T18:39:15.469Z,15.10
2022-10-11T18:41:44.882Z,15.00
2022-10-11T18:44:15.013Z,14.90
2022-10-11T18:46:43.163Z,14.90
2022-10-11T18:49:13.370Z,14.80
2022-10-11T18:51:42.703Z,14.70
2022-10-11T18:54:15.236Z,14.70
2022-10-11T18:56:46.675Z,14.60
2022-10-11T18:59:14.533Z,14.50
2022-10-11T19:01:44.537Z,14.50
2022-10-11T19:04:16.919Z,14.40
2022-10-11T19:06:48.168Z,14.40
2022-10-11T19:09:21.441Z,14.40
2022-10-11T19:11:51.607Z,14.30
2022-10-11T19:14:21.680Z,14.30
2022-10-11T19:16:51.362Z,14.30
2022-10-11T19:19:21.966Z,14.30
2022-10-11T19:21:50.268Z,14.30
2022-10-11T19:24:18.787Z,14.20
2022-10-11T19:26:47.149Z,14.20
2022-10-11T19:29:18.866Z,14.20
2022-10-11T19:31:48.166Z,14.20
2022-10-11T19:34:16.790Z,14.10
2022-10-11T19:37:02.864Z,14.10
2022-10-11T19:39:32.416Z,14.00
2022-10-11T19:42:07.184Z,14.00
2022-10-11T19:44:41.933Z,14.00
2022-10-11T19:47:10.063Z,14.00
2022-10-11T19:49:37.920Z,14.00
2022-10-11T19:52:09.280Z,14.00
2022-10-11T19:54:37.146Z,14.00
2022-10-11T19:57:05.215Z,14.00
2022-10-11T19:59:33.023Z,14.00
2022-10-11T20:02:00.983Z,14.00
2022-10-11T20:04:51.572Z,13.90
2022-10-11T20:07:21.048Z,13.90
2022-10-11T20:09:48.882Z,13.80
2022-10-11T20:12:16.700Z,13.70
2022-10-11T20:14:44.629Z,13.70
2022-10-11T20:17:12.486Z,13.70
2022-10-11T20:19:41.058Z,13.70
2022-10-11T20:22:08.946Z,13.70
2022-10-11T20:24:38.125Z,13.60
2022-10-11T20:27:07.407Z,13.60
2022-10-11T20:29:38.210Z,13.60
2022-10-11T20:32:08.917Z,13.60
2022-10-11T20:34:39.350Z,13.50
2022-10-11T20:37:07.237Z,13.50
2022-10-11T20:39:35.081Z,13.50
2022-10-11T20:42:04.634Z,13.50
2022-10-11T20:44:32.491Z,13.40
2022-10-11T20:47:03.880Z,13.40
2022-10-11T20:49:32.161Z,13.40
2022-10-11T20:52:00.014Z,13.30
2022-10-11T20:54:29.682Z,13.30
2022-10-11T20:56:57.901Z,13.20
2022-10-11T20:59:27.179Z,13.20
2022-10-11T21:01:55.179Z,13.20
2022-10-11T21:04:23.046Z,13.20
2022-10-11T21:06:50.890Z,13.10
2022-10-11T21:09:19.040Z,13.10
2022-10-11T21:11:47.088Z,13.10
2022-10-11T21:14:15.064Z,13.00
2022-10-11T21:16:44.502Z,13.00
2022-10-11T21:19:15.932Z,13.00
2022-10-11T21:21:50.933Z,13.00
2022-10-11T21:24:21.414Z,13.00
2022-10-11T21:26:49.291Z,13.00
2022-10-11T21:29:17.469Z,12.90
2022-10-11T21:31:46.714Z,13.00
2022-10-11T21:34:14.548Z,13.00
2022-10-11T21:36:42.505Z,13.00
2022-10-11T21:39:10.594Z,13.00
2022-10-11T21:41:38.482Z,13.00
2022-10-11T21:44:06.694Z,13.00
2022-10-11T21:47:05.435Z,13.00
2022-10-11T21:49:25.031Z,13.10
2022-10-11T21:51:52.919Z,13.10
2022-10-11T21:54:21.112Z,13.10
2022-10-11T21:56:48.949Z,13.10
2022-10-11T21:59:16.915Z,13.10
2022-10-11T22:01:45.182Z,13.00
2022-10-11T22:04:13.362Z,13.00
2022-10-11T22:06:42.598Z,13.00
2022-10-11T22:09:10.813Z,12.90
2022-10-11T22:11:38.964Z,12.90
2022-10-11T22:14:06.891Z,12.80
2022-10-11T22:16:35.653Z,12.80
2022-10-11T22:19:03.835Z,12.80
2022-10-11T22:21:31.732Z,12.80
2022-10-11T22:24:01.048Z,12.70
2022-10-11T22:26:31.527Z,12.70
2022-10-11T22:29:00.170Z,12.70
2022-10-11T22:31:28.461Z,12.70
2022-10-11T22:33:57.432Z,12.60
2022-10-11T22:36:25.363Z,12.60
2022-10-11T22:38:54.217Z,12.60
2022-10-11T22:41:23.569Z,12.60
2022-10-11T22:43:51.691Z,12.60
2022-10-11T22:46:19.709Z,12.60
2022-10-11T22:48:47.591Z,12.60
2022-10-11T22:51:15.465Z,12.60
2022-10-11T22:53:43.330Z,12.60
2022-10-11T22:56:11.486Z,12.60
2022-10-11T22:58:40.728Z,12.60
2022-10-11T23:01:09.771Z,12.50
2022-10-11T23:03:37.816Z,12.50
2022-10-11T23:06:06.174Z,12.50
2022-10-11T23:08:34.022Z,12.50
2022-10-11T23:11:04.574Z,12.50
2022-10-11T23:13:32.506Z,12.50
2022-10-11T23:16:06.620Z,12.50
2022-10-11T23:18:34.514Z,12.40
2022-10-11T23:21:02.655Z,12.40
2022-10-11T23:23:30.822Z,12.40
2022-10-11T23:26:03.190Z,12.40
2022-10-11T23:28:31.159Z,12.40
2022-10-11T23:30:59.127Z,12.40
2022-10-11T23:33:28.837Z,12.40
2022-10-11T23:35:56.700Z,12.30
2022-10-11T23:38:24.526Z,12.30
2022-10-11T23:40:52.392Z,12.30
2022-10-11T23:43:20.236Z,12.30
2022-10-11T23:45:48.064Z,12.30
2022-10-11T23:48:15.871Z,12.30
2022-10-11T23:50:45.100Z,12.30
2022-10-11T23:53:14.244Z,12.30
2022-10-11T23:55:42.842Z,12.20
2022-10-11T23:58:10.757Z,12.20
